Flight Track Log - Related Links

Times and Time Zones

All times are in EDT time to prevent confusion due to time zone crossing. See the AAL832 flight status page for this flight to view local times or setup timezone preferences in your user account.

Time Position Orientation Groundspeed Altitude Reporting Facility
EDT Latitude Longitude Course Direction KTS MPH feet Rate Location/Type
Sat 06:02:01 PM 41.9167 -87.9167 180° South 164 189 2,800  Level Chicago TRACON
Sat 06:02:55 PM 41.8667 -87.9167 180° South 225 259 4,700 2,450 Climbing Chicago TRACON
Sat 06:03:00 PM 41.7710 -87.7835 180° South  Level Estimated
Sat 06:04:00 PM 41.6657 -87.7222 180° South  Level Estimated
Sat 06:04:01 PM 41.8078 -87.9072 173° South 242 278 7,700  Level Chicago Center
Sat 06:05:00 PM 41.5603 -87.6611 176° South  Level Estimated
Sat 06:05:03 PM 41.7325 -87.9006 176° South 270 311 11,000  Level Chicago Center
Sat 06:06:00 PM 41.4549 -87.6002 189° South  Level Estimated
Sat 06:06:04 PM 41.6369 -87.8950 178° South 286 329 15,000  Level Chicago Center
Sat 06:07:00 PM 41.3469 -87.5380 180° South  Level Estimated
Sat 06:07:06 PM 41.5519 -87.8900 177° South 303 349 17,800  Level Chicago Center
Sat 06:08:08 PM 41.4628 -87.8806 175° South 316 364 20,400 1,839 Climbing Chicago Center
Sat 06:09:10 PM 41.3611 -87.8808 180° South 362 417 21,600 1,610 Climbing Chicago Center
Sat 06:10:11 PM 41.2492 -87.8942 185° South 397 457 23,700 2,341 Climbing Chicago Center
Sat 06:11:13 PM 41.1369 -87.8900 178° South 401 461 26,400 2,323 Climbing Chicago Center
Sat 06:12:15 PM 41.0242 -87.8853 178° South 404 465 28,500 1,258 Climbing Chicago Center
Sat 06:13:17 PM 40.9106 -87.8803 178° South 409 471 29,000 244 Climbing Chicago Center
Sat 06:14:18 PM 40.7747 -87.8414 168° South 418 481 29,000  Level Chicago Center
Sat 06:15:20 PM 40.6564 -87.8097 169° South 432 497 29,000  Level Chicago Center
Sat 06:16:22 PM 40.5372 -87.7764 168° South 439 505 29,000 242 Level Chicago Center
Sat 06:17:24 PM 40.4181 -87.7447 169° South 439 505 29,500 1,132 Climbing Chicago Center
Sat 06:18:08 PM 40.3250 -87.7239 170° South 439 505 31,000 1,925 Climbing Indianapolis Center
Sat 06:19:10 PM 40.2083 -87.6911 168° South 432 497 32,900 976 Climbing Indianapolis Center
Sat 06:20:11 PM 40.0931 -87.6622 169° South 420 483 33,000 49 Climbing Indianapolis Center
Sat 06:21:13 PM 39.9767 -87.6303 168° South 425 489 33,000  Level Indianapolis Center
Sat 06:22:14 PM 39.8389 -87.5956 169° South 430 495 33,000  Level Indianapolis Center
Sat 06:23:16 PM 39.7219 -87.5653 169° South 427 491 33,000  Level Indianapolis Center
Sat 06:24:17 PM 39.6072 -87.5353 169° South 422 486 33,000  Level Indianapolis Center
Sat 06:25:19 PM 39.4900 -87.5053 169° South 426 490 33,000  Level Indianapolis Center
Sat 06:26:20 PM 39.3739 -87.4744 168° South 424 488 33,000  Level Indianapolis Center
Sat 06:27:22 PM 39.2575 -87.4456 169° South 425 489 33,000  Level Indianapolis Center
Sat 06:28:24 PM 39.1400 -87.4161 169° South 427 491 33,000  Level Indianapolis Center
Sat 06:29:25 PM 39.0192 -87.3844 168° South 428 493 33,000  Level Indianapolis Center
Sat 06:30:27 PM 38.9025 -87.3547 169° South 426 490 33,000  Level Indianapolis Center
Sat 06:31:28 PM 38.7850 -87.3267 169° South 428 493 33,000  Level Indianapolis Center
Sat 06:32:30 PM 38.6675 -87.2956 168° South 430 495 33,000  Level Indianapolis Center
Sat 06:33:31 PM 38.5261 -87.2606 169° South 431 496 33,000  Level Indianapolis Center
Sat 06:34:33 PM 38.4089 -87.2311 169° South 431 496 33,000  Level Indianapolis Center
Sat 06:35:35 PM 38.2961 -87.2050 170° South 430 495 33,000  Level Indianapolis Center
Sat 06:36:36 PM 38.1778 -87.1739 168° South 433 498 33,000  Level Indianapolis Center
Sat 06:37:38 PM 38.0617 -87.1447 169° South 429 494 33,000  Level Indianapolis Center
Sat 06:38:39 PM 37.9444 -87.1153 169° South 430 495 33,000 780 Level Indianapolis Center
Sat 06:39:41 PM 37.8075 -87.0492 159° South 441 507 34,600 1,463 Climbing Indianapolis Center
Sat 06:40:42 PM 37.6953 -86.9914 158° South 436 502 36,000 1,171 Climbing Indianapolis Center
Sat 06:41:44 PM 37.5856 -86.9275 155° Southeast 433 498 37,000 690 Climbing Indianapolis Center
Sat 06:42:09 PM 37.5442 -86.9019 154° Southeast 442 509 37,000  Level Memphis Center
Sat 06:42:45 PM 37.4731 -86.8542 152° Southeast 437 503 37,000  Level Indianapolis Center
Sat 06:43:47 PM 37.3647 -86.7825 152° Southeast 434 499 37,000  Level Indianapolis Center
Sat 06:44:09 PM 37.3317 -86.7572 149° Southeast 437 503 37,000  Level Memphis Center
Sat 06:45:09 PM 37.2106 -86.6794 153° Southeast 437 503 37,000  Level Memphis Center
Sat 06:46:09 PM 37.1044 -86.6089 152° Southeast 437 503 37,000  Level Memphis Center
Sat 06:47:09 PM 36.9958 -86.5361 152° Southeast 437 503 37,000  Level Memphis Center
Sat 06:48:09 PM 36.8894 -86.4661 152° Southeast 437 503 37,000  Level Memphis Center
Sat 06:49:09 PM 36.7789 -86.3961 153° Southeast 437 503 37,000  Level Memphis Center
Sat 06:50:09 PM 36.6683 -86.3242 152° Southeast 443 510 37,000  Level Memphis Center
Sat 06:51:09 PM 36.5575 -86.2519 152° Southeast 443 510 37,000  Level Memphis Center
Sat 06:52:09 PM 36.4575 -86.1875 153° Southeast 443 510 37,000  Level Memphis Center
Sat 06:53:09 PM 36.3467 -86.1158 152° Southeast 443 510 37,000  Level Memphis Center
Sat 06:54:09 PM 36.2358 -86.0444 153° Southeast 443 510 37,000  Level Memphis Center
Sat 06:55:09 PM 36.1247 -85.9733 153° Southeast 443 510 37,000  Level Memphis Center
Sat 06:56:09 PM 36.0011 -85.8978 154° Southeast 443 510 37,000  Level Memphis Center
Sat 06:58:29 PM 35.7419 -85.7350 153° Southeast 448 516 37,000  Level Atlanta Center
Sat 06:59:29 PM 35.6325 -85.6639 152° Southeast 448 516 37,000  Level Atlanta Center
Sat 07:00:29 PM 35.5206 -85.5953 153° Southeast 448 516 37,000  Level Atlanta Center
Sat 07:01:29 PM 35.4172 -85.5322 154° Southeast 448 516 37,000  Level Atlanta Center
Sat 07:02:29 PM 35.3075 -85.4589 151° Southeast 448 516 37,000  Level Atlanta Center
Sat 07:03:29 PM 35.1956 -85.3908 154° Southeast 448 516 37,000  Level Atlanta Center
Sat 07:04:29 PM 35.0836 -85.3206 153° Southeast 448 516 37,000  Level Atlanta Center
Sat 07:05:29 PM 34.9717 -85.2503 153° Southeast 448 516 37,000  Level Atlanta Center
Sat 07:06:29 PM 34.8556 -85.1803 154° Southeast 448 516 37,000  Level Atlanta Center
Sat 07:07:29 PM 34.7433 -85.1106 153° Southeast 448 516 37,000  Level Atlanta Center
Sat 07:08:29 PM 34.6208 -85.0333 153° Southeast 448 516 37,000  Level Atlanta Center
Sat 07:09:29 PM 34.5086 -84.9664 154° Southeast 443 510 37,000  Level Atlanta Center
Sat 07:10:29 PM 34.3944 -84.8972 153° Southeast 452 520 37,000  Level Atlanta Center
Sat 07:11:29 PM 34.2800 -84.8281 153° Southeast 452 520 37,000  Level Atlanta Center
Sat 07:12:29 PM 34.1678 -84.7594 153° Southeast 457 526 37,000  Level Atlanta Center
Sat 07:13:29 PM 34.0617 -84.6983 154° Southeast 466 536 37,000  Level Atlanta Center
Sat 07:14:29 PM 33.9472 -84.6297 154° Southeast 466 536 37,000  Level Atlanta Center
Sat 07:15:29 PM 33.8328 -84.5614 154° Southeast 461 531 37,000  Level Atlanta Center
Sat 07:16:29 PM 33.7203 -84.4908 152° Southeast 461 531 37,000  Level Atlanta Center
Sat 07:17:29 PM 33.5869 -84.4203 156° South 461 531 37,000  Level Atlanta Center
Sat 07:18:29 PM 33.4661 -84.3700 161° South 461 531 37,000  Level Atlanta Center
Sat 07:19:29 PM 33.3453 -84.3197 161° South 461 531 37,000  Level Atlanta Center
Sat 07:20:29 PM 33.2222 -84.2672 160° South 467 537 37,000  Level Atlanta Center
Sat 07:21:29 PM 33.1033 -84.2175 161° South 461 531 37,000  Level Atlanta Center
Sat 07:22:29 PM 32.9969 -84.1725 160° South 461 531 37,000  Level Atlanta Center
Sat 07:23:29 PM 32.8736 -84.1228 161° South 461 531 37,000  Level Atlanta Center
Sat 07:24:29 PM 32.7506 -84.0733 161° South 461 531 37,000  Level Atlanta Center
Sat 07:25:29 PM 32.6275 -84.0242 161° South 461 531 37,000  Level Atlanta Center
Sat 07:26:29 PM 32.5064 -83.9697 159° South 461 531 37,000  Level Atlanta Center
Sat 07:27:29 PM 32.3811 -83.9208 162° South 461 531 37,000  Level Atlanta Center
Sat 07:28:29 PM 32.2600 -83.8719 161° South 461 531 37,000  Level Atlanta Center
Sat 07:30:16 PM 32.0444 -83.7822 161° South 484 557 37,000  Level Jacksonville Center
Sat 07:31:16 PM 31.9217 -83.7322 161° South 484 557 37,000  Level Jacksonville Center
Sat 07:32:16 PM 31.7986 -83.6822 161° South 479 551 37,000  Level Jacksonville Center
Sat 07:33:16 PM 31.6758 -83.6297 160° South 474 545 37,000  Level Jacksonville Center
Sat 07:34:16 PM 31.5361 -83.5775 162° South 480 552 37,000  Level Jacksonville Center
Sat 07:35:16 PM 31.4133 -83.5303 162° South 473 544 37,000  Level Jacksonville Center
Sat 07:36:16 PM 31.2925 -83.4808 161° South 468 539 37,000  Level Jacksonville Center
Sat 07:37:16 PM 31.1694 -83.4342 162° South 463 533 37,000  Level Jacksonville Center
Sat 07:38:16 PM 31.0506 -83.3872 161° South 458 527 37,000  Level Jacksonville Center
Sat 07:39:16 PM 30.9275 -83.3383 161° South 458 527 37,000  Level Jacksonville Center
Sat 07:40:16 PM 30.8297 -83.2989 161° South 463 533 37,000  Level Jacksonville Center
Sat 07:41:16 PM 30.7025 -83.2406 158° South 457 526 37,000  Level Jacksonville Center
Sat 07:42:16 PM 30.5836 -83.1797 156° South 463 533 37,000  Level Jacksonville Center
Sat 07:43:16 PM 30.4667 -83.1217 157° South 463 533 37,000  Level Jacksonville Center
Sat 07:44:16 PM 30.3500 -83.0611 156° South 463 533 37,000  Level Jacksonville Center
Sat 07:45:16 PM 30.2331 -83.0031 157° South 456 525 37,000  Level Jacksonville Center
Sat 07:46:16 PM 30.1142 -82.9431 156° South 456 525 37,000  Level Jacksonville Center
Sat 07:47:16 PM 29.9825 -82.8831 158° South 456 525 37,000  Level Jacksonville Center
Sat 07:48:16 PM 29.8636 -82.8231 156° South 462 532 37,000  Level Jacksonville Center
Sat 07:49:16 PM 29.7444 -82.7658 157° South 462 532 37,000  Level Jacksonville Center
Sat 07:50:16 PM 29.6275 -82.7086 157° South 457 526 37,000  Level Jacksonville Center
Sat 07:51:16 PM 29.5106 -82.6492 156° South 457 526 37,000  Level Jacksonville Center
Sat 07:52:16 PM 29.3894 -82.5875 156° South 457 526 37,000  Level Jacksonville Center
Sat 07:53:16 PM 29.2722 -82.5308 157° South 457 526 37,000  Level Jacksonville Center
Sat 07:54:16 PM 29.1531 -82.4717 157° South 457 526 37,000  Level Jacksonville Center
Sat 07:55:16 PM 29.0300 -82.4556 173° South 442 509 37,000  Level Jacksonville Center
Sat 07:56:16 PM 28.9089 -82.4917 195° South 434 499 37,000  Level Jacksonville Center
Sat 07:57:16 PM 28.7922 -82.5231 193° South 440 506 37,000  Level Jacksonville Center
Sat 07:58:16 PM 28.6711 -82.5589 195° South 450 518 37,000  Level Jacksonville Center
Sat 07:59:16 PM 28.5503 -82.5878 192° South 450 518 37,000  Level Jacksonville Center
Sat 08:00:16 PM 28.4231 -82.5858 179° South 455 524 37,000  Level Jacksonville Center
Sat 08:02:39 PM 28.1303 -82.5253 170° South 464 534 37,000  Level Miami Center
Sat 08:03:39 PM 28.0061 -82.5025 171° South 464 534 37,000  Level Miami Center
Sat 08:04:39 PM 27.8842 -82.4778 170° South 458 527 37,000  Level Miami Center
Sat 08:05:39 PM 27.7436 -82.4425 167° South 460 529 37,000  Level Miami Center
Sat 08:06:39 PM 27.6417 -82.3789 151° Southeast 460 529 37,000  Level Miami Center
Sat 08:07:39 PM 27.5319 -82.3036 149° Southeast 460 529 37,000  Level Miami Center
Sat 08:08:39 PM 27.4139 -82.2183 147° Southeast 461 531 37,000 -700 Level Miami Center
Sat 08:09:39 PM 27.3022 -82.1408 148° Southeast 466 536 35,600 -1,550 Descending Miami Center
Sat 08:10:39 PM 27.2025 -82.0708 148° Southeast 472 543 33,900 -1,700 Descending Miami Center
Sat 08:11:39 PM 27.0903 -81.9936 149° Southeast 472 543 32,200 -1,850 Descending Miami Center
Sat 08:12:39 PM 26.9761 -81.9208 150° Southeast 478 550 30,200 -1,850 Descending Miami Center
Sat 08:13:39 PM 26.8619 -81.8392 147° Southeast 478 550 28,500 -1,650 Descending Miami Center
Sat 08:14:39 PM 26.7497 -81.7625 149° Southeast 478 550 26,900 -1,650 Descending Miami Center
Sat 08:15:39 PM 26.6378 -81.6811 147° Southeast 478 550 25,200 -1,450 Descending Miami Center
Sat 08:16:39 PM 26.5314 -81.6094 149° Southeast 466 536 24,000 -750 Descending Miami Center
Sat 08:17:39 PM 26.4172 -81.5306 148° Southeast 460 529 23,700 -1,300 Descending Miami Center
Sat 08:18:39 PM 26.3231 -81.4644 148° Southeast 434 499 21,400 -2,200 Descending Miami Center
Sat 08:19:39 PM 26.2269 -81.4003 149° Southeast 414 476 19,300 -2,050 Descending Miami Center
Sat 08:20:39 PM 26.1369 -81.3392 149° Southeast 396 456 17,300 -2,100 Descending Miami Center
Sat 08:21:39 PM 26.0536 -81.2714 144° Southeast 384 442 15,100 -2,400 Descending Miami Center
Sat 08:22:39 PM 26.0019 -81.1747 121° Southeast 363 418 12,500 -2,411 Descending Miami Center
Sat 08:23:26 PM 25.9603 -81.1061 124° Southeast 365 420 10,800 -1,625 Descending Miami Center
Sat 08:24:15 PM 25.9186 -81.0283 121° Southeast 342 394 9,900 -658 Descending Miami Center
Sat 08:24:39 PM 25.9050 -80.9956 115° Southeast 344 396 10,000  Climbing Miami Center
Sat 08:25:04 PM 25.8850 -80.9628 124° Southeast 273 314 9,900 -900 Descending Miami Center
Sat 08:25:39 PM 25.8672 -80.9228 116° Southeast 307 353 9,100 -1,574 Descending Miami Center
Sat 08:26:05 PM 25.8300 -80.9078 160° South 280 322 8,300 -1,500 Descending Miami Center
Sat 08:26:39 PM 25.7953 -80.8858 150° Southeast 269 310 7,600 -1,433 Descending Miami Center
Sat 08:27:12 PM 25.7625 -80.8594 144° Southeast 283 326 6,700 -1,400 Descending Miami Center
Sat 08:27:39 PM 25.7636 -80.8178 88° East 246 283 6,200 -1,475 Descending Miami Center
Sat 08:28:13 PM 25.7628 -80.7739 91° East 261 300 5,200 -1,500 Descending Miami Center
Sat 08:28:39 PM 25.7678 -80.7394 81° East 231 266 4,700 -1,279 Descending Miami Center
Sat 08:29:14 PM 25.7669 -80.6933 91° East 259 298 3,900 -700 Descending Miami Center
Sat 08:29:39 PM 25.7719 -80.6614 80° East 237 273 4,000 98 Climbing Miami Center
Sat 08:30:15 PM 25.7708 -80.6219 92° East 213 245 4,000  Level Miami Center
Sat 08:30:39 PM 25.7758 -80.5944 79° East 231 266 4,000  Level Miami Center
Sat 08:31:10 PM 25.7744 -80.5644 93° East 192 221 4,000  Level Miami Center
Sat 08:31:39 PM 25.7772 -80.5369 84° East 214 246 4,000 -492 Level Miami Center
Sat 08:32:11 PM 25.7778 -80.5092 89° East 182 209 3,500 -700 Descending Miami Center
Sat 08:32:39 PM 25.7806 -80.4861 82° East 192 221 3,300 -984 Descending Miami Center
Sat 08:33:12 PM 25.7792 -80.4539 93° East 175 201 2,500 -1,097 Descending Miami Center
Sat 08:34:12 PM 25.7806 -80.4008 88° East 171 197 1,600 -900 Descending Miami Center

Login

Don't have an account? Register now (free) for customized features, flight alerts, and more!